Time;durP1;ratioP1;P1;durP2;ratioP2;P2;SDS_P1;SDS_P2;PMS_P1;PMS_P2;Temp;Humidity;BMP_temperature;BMP_pressure;BME280_temperature;BME280_humidity;BME280_pressure;Samples;Min_cycle;Max_cycle;Signal;HPM_P1;HPM_P2
2022/03/29 03:01:30;;;;;;;16.67;14.97;;;4.70;99.90;;;;;;5435446;23;20705;-71
2022/03/29 03:03:57;;;;;;;17.00;15.27;;;4.70;99.90;;;;;;4934644;29;20257;-71
2022/03/29 03:06:23;;;;;;;15.60;14.00;;;4.70;99.90;;;;;;4936137;29;20185;-71
2022/03/29 03:08:48;;;;;;;15.83;14.33;;;4.70;99.90;;;;;;4949229;29;20554;-71
2022/03/29 03:11:14;;;;;;;18.53;16.70;;;4.80;99.90;;;;;;4945345;29;20203;-71
2022/03/29 03:13:40;;;;;;;21.97;20.17;;;4.80;99.90;;;;;;4935415;29;20186;-71
2022/03/29 03:16:06;;;;;;;20.87;18.80;;;4.80;99.90;;;;;;4956316;23;20241;-68
2022/03/29 03:18:33;;;;;;;20.33;18.30;;;4.80;99.90;;;;;;4933940;29;20658;-68
2022/03/29 03:20:58;;;;;;;20.30;18.40;;;4.80;99.90;;;;;;4934795;29;20186;-68
2022/03/29 03:23:25;;;;;;;17.43;13.53;;;4.80;99.90;;;;;;4934735;29;20220;-68
2022/03/29 03:25:51;;;;;;;17.20;15.40;;;4.80;99.90;;;;;;4934530;29;20225;-68
2022/03/29 03:28:17;;;;;;;22.00;20.13;;;4.80;99.90;;;;;;4934546;29;20221;-68
2022/03/29 03:30:42;;;;;;;24.53;22.17;;;4.70;99.90;;;;;;4935157;29;20237;-68
2022/03/29 03:33:08;;;;;;;28.03;25.60;;;4.70;99.90;;;;;;4934523;29;20210;-68
2022/03/29 03:35:34;;;;;;;27.73;25.20;;;4.70;99.90;;;;;;4934600;29;20206;-67
2022/03/29 03:38:00;;;;;;;23.00;20.63;;;4.60;99.90;;;;;;4934181;29;20200;-68
2022/03/29 03:40:25;;;;;;;21.93;19.93;;;4.70;99.90;;;;;;4934457;29;20210;-68
2022/03/29 03:42:51;;;;;;;18.67;17.00;;;4.60;99.90;;;;;;4934593;29;20194;-68
2022/03/29 03:45:17;;;;;;;20.17;18.47;;;4.60;99.90;;;;;;4934679;29;20214;-68
2022/03/29 03:47:43;;;;;;;27.07;24.83;;;4.60;99.90;;;;;;4933614;29;20201;-68
2022/03/29 03:50:09;;;;;;;26.87;24.67;;;4.60;99.90;;;;;;4934926;29;20183;-68
2022/03/29 03:52:35;;;;;;;29.00;26.10;;;4.60;99.90;;;;;;4935554;29;20587;-68
2022/03/29 03:55:01;;;;;;;21.20;19.23;;;4.60;99.90;;;;;;4934582;29;20806;-68
2022/03/29 03:57:27;;;;;;;23.00;20.93;;;4.60;99.90;;;;;;4933946;29;20269;-68
2022/03/29 03:59:55;;;;;;;22.67;20.53;;;4.50;99.90;;;;;;4934214;29;20186;-67
2022/03/29 04:02:22;;;;;;;22.20;19.97;;;4.50;99.90;;;;;;4934156;29;20654;-68
2022/03/29 04:04:48;;;;;;;20.67;18.77;;;4.40;99.90;;;;;;4934121;29;20218;-68
2022/03/29 04:07:14;;;;;;;21.60;19.70;;;4.40;99.90;;;;;;4933694;29;20396;-68
2022/03/29 04:09:40;;;;;;;21.07;18.97;;;4.40;99.90;;;;;;4932788;29;20183;-68
2022/03/29 04:12:07;;;;;;;19.93;18.23;;;4.30;99.90;;;;;;4933995;29;20217;-68
2022/03/29 04:14:33;;;;;;;22.30;20.43;;;4.40;99.90;;;;;;4934148;29;20183;-68
2022/03/29 04:16:58;;;;;;;21.00;19.27;;;4.40;99.90;;;;;;4933678;29;20218;-68
2022/03/29 04:19:25;;;;;;;21.33;19.43;;;4.40;99.90;;;;;;4934041;29;20585;-68
2022/03/29 04:21:50;;;;;;;24.77;22.77;;;4.30;99.90;;;;;;4934052;29;20541;-68
2022/03/29 04:24:16;;;;;;;24.00;21.53;;;4.30;99.90;;;;;;4933682;29;20206;-68
2022/03/29 04:26:42;;;;;;;19.60;17.83;;;4.30;99.90;;;;;;4933728;29;20202;-68
2022/03/29 04:29:08;;;;;;;20.50;18.50;;;4.30;99.90;;;;;;4933544;29;20178;-68
2022/03/29 04:31:34;;;;;;;24.80;22.57;;;4.30;99.90;;;;;;4932835;29;20182;-68
2022/03/29 04:34:00;;;;;;;20.37;17.53;;;4.30;99.90;;;;;;4933958;29;20321;-68
2022/03/29 04:36:27;;;;;;;20.00;17.93;;;4.30;99.90;;;;;;4932649;29;20245;-68
2022/03/29 04:38:54;;;;;;;19.63;17.70;;;4.40;99.90;;;;;;4933295;29;20186;-68
2022/03/29 04:41:23;;;;;;;19.03;16.97;;;4.40;99.90;;;;;;4934057;29;20799;-68
2022/03/29 04:43:49;;;;;;;19.73;15.83;;;4.40;99.90;;;;;;4933652;29;20217;-68
2022/03/29 04:46:14;;;;;;;18.43;16.47;;;4.40;99.90;;;;;;4933767;29;20296;-68
2022/03/29 04:48:40;;;;;;;19.80;17.13;;;4.40;99.90;;;;;;4932185;29;20688;-68
2022/03/29 04:51:06;;;;;;;19.47;16.40;;;4.30;99.90;;;;;;4933617;29;20257;-68
2022/03/29 04:53:32;;;;;;;19.47;17.20;;;4.30;99.90;;;;;;4933501;29;20186;-68
2022/03/29 04:55:58;;;;;;;20.10;17.90;;;4.30;99.90;;;;;;4933399;29;20698;-68
2022/03/29 04:58:25;;;;;;;24.37;18.07;;;4.30;99.90;;;;;;4931042;29;20348;-69
2022/03/29 05:00:51;;;;;;;23.60;17.33;;;4.20;99.90;;;;;;4933412;29;20190;-68
2022/03/29 05:03:17;;;;;;;20.47;18.10;;;4.30;99.90;;;;;;4931927;29;20218;-68
2022/03/29 05:05:43;;;;;;;24.07;20.27;;;4.30;99.90;;;;;;4932718;28;20205;-68
2022/03/29 05:08:09;;;;;;;21.93;20.00;;;4.20;99.90;;;;;;4935647;29;20197;-68
2022/03/29 05:10:34;;;;;;;23.33;18.03;;;4.20;99.90;;;;;;4935610;29;20190;-68
2022/03/29 05:13:03;;;;;;;20.03;16.23;;;4.20;99.90;;;;;;4936550;29;20190;-67
2022/03/29 05:15:29;;;;;;;26.37;16.20;;;4.10;99.90;;;;;;4936709;29;20190;-68
2022/03/29 05:17:55;;;;;;;17.77;15.97;;;4.10;99.90;;;;;;4935075;29;20182;-68
2022/03/29 05:20:21;;;;;;;22.47;18.37;;;4.00;99.90;;;;;;4936508;29;20224;-67
2022/03/29 05:22:50;;;;;;;19.83;16.87;;;4.10;99.90;;;;;;4935397;29;20646;-68
2022/03/29 05:25:17;;;;;;;19.57;16.63;;;4.10;99.90;;;;;;4935425;29;20538;-67
2022/03/29 05:27:43;;;;;;;21.27;15.80;;;4.10;99.90;;;;;;4936036;29;20214;-68
2022/03/29 05:30:10;;;;;;;19.37;16.27;;;4.10;99.90;;;;;;4936489;29;20213;-68
2022/03/29 05:32:36;;;;;;;18.23;16.43;;;4.20;99.90;;;;;;4935441;29;20179;-68
2022/03/29 05:35:05;;;;;;;19.07;15.50;;;4.30;99.90;;;;;;4936577;29;20606;-68
2022/03/29 05:37:31;;;;;;;22.03;19.63;;;4.40;99.90;;;;;;4935786;29;20261;-68
2022/03/29 05:39:57;;;;;;;27.03;24.63;;;4.40;99.90;;;;;;4936693;29;20590;-68
2022/03/29 05:42:23;;;;;;;26.40;23.97;;;4.50;99.90;;;;;;4936246;29;20718;-68
2022/03/29 05:44:48;;;;;;;19.67;17.57;;;4.50;99.90;;;;;;4936090;29;20559;-68
2022/03/29 05:49:58;;;;;;;48.23;23.80;;;4.70;99.90;;;;;;4934785;29;20218;-66
2022/03/29 05:52:25;;;;;;;41.33;31.93;;;4.80;99.90;;;;;;4933311;29;20214;-66
2022/03/29 05:54:51;;;;;;;36.33;30.30;;;4.90;99.90;;;;;;4925620;29;20182;-67
2022/03/29 05:57:19;;;;;;;23.03;20.70;;;5.10;99.90;;;;;;4935794;29;20201;-66
2022/03/29 05:59:45;;;;;;;42.53;38.77;;;5.20;99.90;;;;;;4931891;29;20195;-66
2022/03/29 06:02:12;;;;;;;21.53;17.60;;;5.30;99.90;;;;;;4917583;29;20597;-67
2022/03/29 06:04:39;;;;;;;33.40;17.43;;;5.50;99.90;;;;;;4918672;29;20215;-66
2022/03/29 06:07:06;;;;;;;21.17;13.87;;;5.70;99.90;;;;;;4936066;29;20539;-66
2022/03/29 06:09:33;;;;;;;27.80;19.60;;;5.80;99.90;;;;;;4935094;29;20722;-66
2022/03/29 06:11:59;;;;;;;29.43;21.57;;;5.90;99.90;;;;;;4936005;29;20198;-66
2022/03/29 06:14:25;;;;;;;19.97;16.30;;;5.90;99.90;;;;;;4935637;29;20190;-66
2022/03/29 06:16:51;;;;;;;26.43;18.33;;;6.00;99.90;;;;;;4935364;29;20228;-66
2022/03/29 06:19:17;;;;;;;21.17;18.43;;;6.10;99.90;;;;;;4930752;29;20241;-66
2022/03/29 06:21:43;;;;;;;19.30;15.23;;;6.20;99.90;;;;;;4929934;29;20666;-67
2022/03/29 06:24:10;;;;;;;17.33;15.30;;;6.30;99.90;;;;;;4930062;29;20353;-67
2022/03/29 06:26:38;;;;;;;25.17;17.27;;;6.50;99.90;;;;;;4934461;29;20199;-66
2022/03/29 06:29:05;;;;;;;23.47;20.43;;;6.60;99.90;;;;;;4935342;29;20563;-65
2022/03/29 06:31:31;;;;;;;23.43;18.57;;;6.60;99.90;;;;;;4935793;29;20179;-66
2022/03/29 06:33:57;;;;;;;20.70;18.70;;;6.60;99.90;;;;;;4926094;29;20187;-66
2022/03/29 06:36:22;;;;;;;24.27;21.87;;;6.60;99.90;;;;;;4916286;29;20892;-66
2022/03/29 06:38:49;;;;;;;23.90;21.60;;;6.80;99.90;;;;;;4916452;29;20262;-67
2022/03/29 06:41:15;;;;;;;20.93;17.10;;;7.10;99.90;;;;;;4916759;29;20332;-66
2022/03/29 06:43:41;;;;;;;23.73;19.77;;;7.40;99.90;;;;;;4923022;29;20214;-68
2022/03/29 06:46:08;;;;;;;23.93;17.57;;;7.70;99.90;;;;;;4935466;29;20225;-69
2022/03/29 06:48:35;;;;;;;19.57;13.73;;;8.10;99.90;;;;;;4934079;29;20692;-69
2022/03/29 06:51:01;;;;;;;20.93;14.27;;;8.40;99.90;;;;;;4935057;29;20178;-69
2022/03/29 06:53:27;;;;;;;20.73;14.83;;;8.70;99.90;;;;;;4932719;29;20189;-69
2022/03/29 06:55:53;;;;;;;15.83;14.03;;;8.80;99.90;;;;;;4924451;29;20214;-69
2022/03/29 06:58:20;;;;;;;20.83;18.80;;;9.00;99.90;;;;;;4933704;29;20195;-68
2022/03/29 07:00:46;;;;;;;25.03;22.87;;;9.10;99.90;;;;;;4934146;29;20214;-68
2022/03/29 07:03:12;;;;;;;23.57;17.77;;;9.40;99.90;;;;;;4932410;29;20282;-67
2022/03/29 07:05:42;;;;;;;17.47;14.00;;;9.50;99.90;;;;;;4932435;29;20625;-67
2022/03/29 07:08:12;;;;;;;16.70;13.37;;;9.50;99.90;;;;;;4933782;29;20186;-68
2022/03/29 07:13:23;;;;;;;16.17;14.47;;;9.50;99.90;;;;;;4934335;29;20193;-67
2022/03/29 07:15:50;;;;;;;19.17;14.47;;;9.50;99.90;;;;;;4915910;29;20215;-67
2022/03/29 07:18:16;;;;;;;16.20;13.40;;;9.50;99.90;;;;;;4916329;29;20574;-67
2022/03/29 07:20:42;;;;;;;20.13;15.17;;;9.60;99.90;;;;;;4916209;29;20683;-67
2022/03/29 07:23:08;;;;;;;16.83;14.30;;;9.80;99.90;;;;;;4916368;29;20325;-68
2022/03/29 07:25:34;;;;;;;18.83;13.63;;;10.00;99.90;;;;;;4932635;29;20585;-68
2022/03/29 07:28:01;;;;;;;15.43;13.80;;;10.00;99.90;;;;;;4934797;29;20190;-68
2022/03/29 07:30:27;;;;;;;20.20;13.63;;;10.10;99.90;;;;;;4934677;29;20183;-67
2022/03/29 07:32:57;;;;;;;17.60;13.97;;;10.30;99.90;;;;;;4934970;29;20183;-67
2022/03/29 07:35:26;;;;;;;19.77;16.73;;;10.50;99.90;;;;;;4922080;29;20564;-67
2022/03/29 07:37:52;;;;;;;21.07;18.43;;;10.70;99.90;;;;;;4915479;29;20183;-67
2022/03/29 07:40:29;;;;;;;20.13;17.07;;;10.80;99.90;;;;;;4915732;29;20186;-68
2022/03/29 07:42:55;;;;;;;18.57;14.53;;;11.00;99.90;;;;;;4915600;29;20206;-67
2022/03/29 07:45:21;;;;;;;30.40;14.87;;;11.10;99.90;;;;;;4929693;29;20182;-67
2022/03/29 07:47:55;;;;;;;20.23;15.27;;;11.10;99.90;;;;;;4933200;29;20564;-67
2022/03/29 07:50:22;;;;;;;20.63;18.43;;;11.30;99.90;;;;;;4933835;29;20238;-67
2022/03/29 07:52:47;;;;;;;26.23;20.80;;;11.50;99.90;;;;;;4934597;29;20190;-68
2022/03/29 07:55:13;;;;;;;27.90;25.47;;;11.70;99.90;;;;;;4923177;29;20231;-68
2022/03/29 07:57:40;;;;;;;26.30;23.53;;;12.00;99.90;;;;;;4915006;29;20190;-68
2022/03/29 08:02:56;;;;;;;18.47;14.37;;;12.40;99.90;;;;;;4926914;29;20187;-68
2022/03/29 08:05:22;;;;;;;13.93;12.37;;;12.90;99.90;;;;;;4914293;29;20183;-68
2022/03/29 08:07:48;;;;;;;17.50;12.87;;;13.10;99.90;;;;;;4928582;29;20188;-68
2022/03/29 08:10:14;;;;;;;20.23;12.70;;;13.10;99.90;;;;;;4934485;29;20183;-67
2022/03/29 08:12:40;;;;;;;16.77;13.10;;;12.90;99.90;;;;;;4934671;29;20189;-68
2022/03/29 08:15:08;;;;;;;14.03;12.63;;;13.00;99.60;;;;;;4934499;29;20190;-67
2022/03/29 08:17:34;;;;;;;18.57;12.70;;;12.90;99.40;;;;;;4932248;29;20217;-67
2022/03/29 08:20:01;;;;;;;17.47;13.53;;;13.10;99.40;;;;;;4934323;29;20277;-68
2022/03/29 08:22:27;;;;;;;25.27;13.73;;;13.40;98.30;;;;;;4932873;29;20179;-68
2022/03/29 08:24:53;;;;;;;21.43;13.57;;;13.80;97.00;;;;;;4934154;29;20213;-68
2022/03/29 08:27:18;;;;;;;20.03;12.20;;;14.40;95.90;;;;;;4933068;29;20215;-67
2022/03/29 08:29:47;;;;;;;17.80;11.97;;;14.80;93.90;;;;;;4934169;29;20198;-68
2022/03/29 08:32:12;;;;;;;14.80;12.37;;;14.90;93.40;;;;;;4932905;29;20182;-68
2022/03/29 08:34:39;;;;;;;16.40;14.07;;;15.10;91.90;;;;;;4932781;29;20174;-68
2022/03/29 08:37:05;;;;;;;17.40;13.17;;;15.40;90.60;;;;;;4918654;29;20253;-68
2022/03/29 08:39:32;;;;;;;18.03;13.03;;;15.60;88.80;;;;;;4914990;29;20183;-68
2022/03/29 08:42:12;;;;;;;18.90;12.90;;;15.90;86.80;;;;;;4915630;29;20197;-68
2022/03/29 08:44:39;;;;;;;16.57;12.27;;;16.00;83.50;;;;;;4919010;29;20385;-69
2022/03/29 08:47:10;;;;;;;18.23;12.73;;;16.10;82.20;;;;;;4932714;29;20225;-68
2022/03/29 08:49:36;;;;;;;15.87;11.53;;;16.50;80.70;;;;;;4936492;29;20183;-68
2022/03/29 08:52:04;;;;;;;15.03;12.07;;;16.60;80.20;;;;;;4937931;29;20186;-68
2022/03/29 08:54:32;;;;;;;20.03;12.63;;;16.80;78.30;;;;;;4936627;29;20281;-69
2022/03/29 08:56:58;;;;;;;20.07;13.20;;;17.00;76.00;;;;;;4927728;29;20206;-68
2022/03/29 08:59:26;;;;;;;16.57;12.47;;;17.20;76.10;;;;;;4918769;29;20213;-68
2022/03/29 09:01:52;;;;;;;18.03;12.37;;;17.30;74.40;;;;;;4918605;29;20210;-68
2022/03/29 09:04:23;;;;;;;15.07;13.40;;;17.50;73.30;;;;;;4918899;29;20221;-69
2022/03/29 09:06:54;;;;;;;14.17;12.40;;;17.60;72.10;;;;;;4930009;29;20632;-68
2022/03/29 09:09:28;;;;;;;20.67;13.00;;;17.80;70.40;;;;;;4936340;29;20585;-68
2022/03/29 09:11:56;;;;;;;15.30;12.60;;;17.60;71.00;;;;;;4937511;29;20328;-68
2022/03/29 09:14:30;;;;;;;22.47;13.83;;;17.90;69.70;;;;;;4937456;29;20195;-68
2022/03/29 09:16:56;;;;;;;17.20;13.52;;;17.80;70.60;;;;;;4927573;29;20564;-67
2022/03/29 09:19:25;;;;;;;24.08;13.70;;;18.00;68.60;;;;;;4918379;29;20195;-68
2022/03/29 09:21:54;;;;;;;20.75;14.68;;;18.10;68.30;;;;;;4918285;29;20266;-68
2022/03/29 09:24:20;;;;;;;19.47;16.20;;;18.20;67.60;;;;;;4918140;29;20211;-68
2022/03/29 09:26:49;;;;;;;15.48;13.88;;;18.20;67.10;;;;;;4928456;29;20202;-68
2022/03/29 09:29:20;;;;;;;19.27;15.63;;;18.30;69.10;;;;;;4935751;29;20189;-68
2022/03/29 09:31:59;;;;;;;17.13;14.02;;;18.30;68.50;;;;;;4935815;29;20182;-69
2022/03/29 09:34:26;;;;;;;17.90;14.38;;;18.40;66.40;;;;;;4936968;29;20226;-69
2022/03/29 09:36:52;;;;;;;16.03;14.20;;;18.30;67.10;;;;;;4924270;29;20691;-69
2022/03/29 09:39:42;;;;;;;19.42;14.43;;;18.60;66.10;;;;;;4915416;29;20215;-69
2022/03/29 09:42:13;;;;;;;18.17;14.32;;;18.50;65.10;;;;;;4917834;29;20655;-69
2022/03/29 09:44:50;;;;;;;16.95;12.80;;;18.60;64.30;;;;;;4917776;29;20584;-69
2022/03/29 09:47:20;;;;;;;15.85;13.02;;;18.80;63.90;;;;;;4931419;29;20339;-69
2022/03/29 09:49:59;;;;;;;18.88;12.82;;;18.90;62.90;;;;;;4936758;29;20226;-69
2022/03/29 09:52:30;;;;;;;18.42;12.45;;;18.80;62.80;;;;;;4936345;29;20225;-68
2022/03/29 09:55:20;;;;;;;19.40;12.13;;;19.10;62.40;;;;;;4936665;29;20570;-68
2022/03/29 09:57:47;;;;;;;21.13;12.88;;;19.60;62.90;;;;;;4921409;29;20651;-68
2022/03/29 10:00:29;;;;;;;20.10;12.80;;;19.60;60.70;;;;;;4916398;29;20187;-68
2022/03/29 10:02:55;;;;;;;19.67;12.65;;;20.20;59.50;;;;;;4917543;29;20195;-69
2022/03/29 10:05:23;;;;;;;17.02;12.63;;;20.90;57.70;;;;;;4917686;29;20179;-70
2022/03/29 10:10:55;;;;;;;19.55;12.80;;;21.70;54.40;;;;;;4936229;29;20186;-69
2022/03/29 10:13:23;;;;;;;21.70;13.20;;;21.30;52.70;;;;;;4935215;29;20178;-69
2022/03/29 10:15:53;;;;;;;18.55;13.00;;;20.90;53.30;;;;;;4933664;29;20334;-68
2022/03/29 10:18:26;;;;;;;20.27;12.15;;;21.00;54.80;;;;;;4915700;29;20183;-68
2022/03/29 10:20:54;;;;;;;14.73;12.30;;;20.70;53.80;;;;;;4916167;29;20187;-69
2022/03/29 10:23:22;;;;;;;19.20;11.45;;;21.00;53.30;;;;;;4917043;29;20297;-69
2022/03/29 10:25:50;;;;;;;17.00;11.93;;;21.60;52.40;;;;;;4918617;29;20210;-69
2022/03/29 10:28:17;;;;;;;16.52;12.35;;;21.70;52.20;;;;;;4935767;29;20245;-69
2022/03/29 10:30:43;;;;;;;16.08;13.07;;;21.50;50.80;;;;;;4935934;29;20197;-68
2022/03/29 10:33:16;;;;;;;18.02;12.80;;;21.40;50.70;;;;;;4935640;29;20185;-69
2022/03/29 10:36:02;;;;;;;18.80;12.52;;;21.70;50.40;;;;;;4934866;29;20198;-68
2022/03/29 10:38:48;;;;;;;20.40;14.20;;;22.40;49.70;;;;;;4916267;29;20190;-69
2022/03/29 10:41:26;;;;;;;16.70;13.82;;;22.50;48.00;;;;;;4917244;29;20183;-69
2022/03/29 10:44:05;;;;;;;18.88;16.48;;;22.60;48.50;;;;;;4926864;29;20809;-69
2022/03/29 10:46:50;;;;;;;20.00;16.73;;;23.10;46.60;;;;;;4930042;29;20241;-68
2022/03/29 10:49:24;;;;;;;22.95;19.05;;;23.50;44.20;;;;;;4916321;29;20187;-69
2022/03/29 10:52:15;;;;;;;21.15;17.83;;;23.50;46.60;;;;;;4916478;29;20610;-69
2022/03/29 10:54:41;;;;;;;19.33;17.35;;;22.90;48.20;;;;;;4918078;29;20201;-69
2022/03/29 10:57:20;;;;;;;19.45;17.50;;;22.20;47.80;;;;;;4927302;29;20206;-68
2022/03/29 11:00:17;;;;;;;20.05;17.92;;;21.70;47.30;;;;;;4934929;29;20200;-68
2022/03/29 11:03:12;;;;;;;25.60;20.23;;;21.80;48.40;;;;;;4927907;29;20205;-70
2022/03/29 11:06:03;;;;;;;188.65;30.08;;;21.90;47.80;;;;;;4933326;29;20214;-74
2022/03/29 11:08:30;;;;;;;20.42;18.42;;;21.80;49.60;;;;;;4932563;29;20199;-69
2022/03/29 11:10:58;;;;;;;160.00;26.80;;;22.10;48.00;;;;;;4935264;29;20273;-70
2022/03/29 11:13:25;;;;;;;30.90;17.63;;;22.50;47.90;;;;;;4935011;29;20234;-69
2022/03/29 11:15:51;;;;;;;23.00;16.98;;;22.90;47.60;;;;;;4933805;29;20228;-70
2022/03/29 11:18:32;;;;;;;24.50;15.63;;;22.80;47.20;;;;;;4934821;29;20186;-71
2022/03/29 11:21:02;;;;;;;50.05;16.98;;;22.70;46.50;;;;;;4934955;29;20329;-66
2022/03/29 11:23:33;;;;;;;188.25;26.17;;;22.40;45.90;;;;;;4934870;29;20583;-69
2022/03/29 11:26:14;;;;;;;22.00;15.32;;;22.10;46.40;;;;;;4932382;29;20202;-70
2022/03/29 11:28:54;;;;;;;24.15;20.10;;;21.90;46.60;;;;;;4915518;29;20183;-70
2022/03/29 11:31:21;;;;;;;22.48;15.95;;;21.30;48.20;;;;;;4915706;29;20187;-66
2022/03/29 11:33:51;;;;;;;19.80;17.42;;;21.50;49.10;;;;;;4915818;29;20281;-67
2022/03/29 11:36:22;;;;;;;23.52;18.77;;;21.70;48.00;;;;;;4918026;29;20210;-66
2022/03/29 11:38:48;;;;;;;22.73;17.35;;;21.90;47.20;;;;;;4928826;29;20187;-67
2022/03/29 11:41:26;;;;;;;27.80;16.77;;;22.20;47.60;;;;;;4932638;29;20235;-67
2022/03/29 11:44:01;;;;;;;24.77;16.48;;;22.50;46.00;;;;;;4933038;29;20728;-67
2022/03/29 11:46:49;;;;;;;23.67;16.33;;;22.70;46.20;;;;;;4929153;29;20671;-67
2022/03/29 11:49:16;;;;;;;25.80;16.13;;;22.80;46.20;;;;;;4914186;29;20722;-67
2022/03/29 11:51:42;;;;;;;23.33;16.60;;;22.70;45.80;;;;;;4915902;29;20656;-67
2022/03/29 11:54:08;;;;;;;24.08;16.52;;;22.80;46.30;;;;;;4934188;29;20329;-67
2022/03/29 11:56:38;;;;;;;28.00;15.77;;;22.90;45.40;;;;;;4931712;29;20670;-70
2022/03/29 11:59:12;;;;;;;28.20;16.00;;;23.00;45.30;;;;;;4913776;29;20718;-70
2022/03/29 12:01:38;;;;;;;21.05;15.48;;;22.90;44.10;;;;;;4915245;29;20194;-70
2022/03/29 12:04:07;;;;;;;22.85;15.98;;;22.70;44.70;;;;;;4915599;29;20215;-70
2022/03/29 12:06:49;;;;;;;26.63;19.20;;;22.70;45.70;;;;;;4948980;29;20281;-70
2022/03/29 12:09:21;;;;;;;28.63;18.42;;;22.60;45.20;;;;;;4934115;29;20377;-72
2022/03/29 12:11:47;;;;;;;27.65;18.30;;;22.40;45.30;;;;;;4933965;29;20663;-71
2022/03/29 12:14:19;;;;;;;28.17;18.50;;;22.20;45.20;;;;;;4931965;29;20194;-70
2022/03/29 12:16:47;;;;;;;20.85;16.80;;;22.10;46.10;;;;;;4914445;29;20222;-70
2022/03/29 12:19:15;;;;;;;22.85;17.00;;;21.80;46.30;;;;;;4915649;29;20194;-70
2022/03/29 12:21:45;;;;;;;24.92;16.33;;;21.40;46.80;;;;;;4913783;29;20191;-70
2022/03/29 12:24:13;;;;;;;28.17;17.13;;;21.60;46.50;;;;;;4915653;29;20215;-70
2022/03/29 12:26:44;;;;;;;32.97;17.23;;;22.00;46.30;;;;;;4933994;29;20206;-71
2022/03/29 12:29:13;;;;;;;22.55;17.23;;;22.30;45.80;;;;;;4934024;29;20214;-70
2022/03/29 12:31:41;;;;;;;31.23;20.02;;;22.60;45.10;;;;;;4934058;29;20539;-71
2022/03/29 12:34:08;;;;;;;28.50;19.67;;;22.80;44.70;;;;;;4933508;29;20189;-70
2022/03/29 12:36:40;;;;;;;24.90;16.20;;;22.80;44.70;;;;;;4923281;29;20257;-70
2022/03/29 12:39:08;;;;;;;23.63;16.15;;;22.80;44.40;;;;;;4926368;29;20183;-71
2022/03/29 12:41:52;;;;;;;25.77;16.83;;;22.70;44.20;;;;;;4928664;29;20292;-70
2022/03/29 12:44:36;;;;;;;23.13;16.05;;;22.40;45.60;;;;;;4930601;29;20684;-70
2022/03/29 12:47:04;;;;;;;23.63;14.88;;;22.70;43.90;;;;;;4914296;29;20211;-70
2022/03/29 12:49:31;;;;;;;22.73;15.25;;;23.00;43.20;;;;;;4914735;29;20270;-69
2022/03/29 12:52:02;;;;;;;23.88;15.63;;;23.10;43.40;;;;;;4916933;29;20621;-70
2022/03/29 12:54:42;;;;;;;26.38;15.55;;;23.30;43.40;;;;;;4913925;29;20221;-71
2022/03/29 12:57:12;;;;;;;23.38;15.60;;;23.50;44.50;;;;;;4918634;29;20206;-70
2022/03/29 12:59:43;;;;;;;22.15;16.13;;;23.20;43.90;;;;;;4925079;29;20195;-70
2022/03/29 13:02:18;;;;;;;20.55;15.57;;;23.20;43.70;;;;;;4914985;29;20683;-70
2022/03/29 13:04:50;;;;;;;26.05;17.15;;;23.20;42.80;;;;;;4915716;29;20437;-66
2022/03/29 13:07:39;;;;;;;21.00;15.35;;;23.20;43.00;;;;;;4926039;29;20214;-68
2022/03/29 13:10:35;;;;;;;24.63;16.15;;;23.10;42.90;;;;;;4923445;29;20194;-69
2022/03/29 13:13:08;;;;;;;23.17;15.60;;;23.10;43.00;;;;;;4928946;29;20617;-69
2022/03/29 13:16:05;;;;;;;28.17;15.93;;;23.30;42.60;;;;;;4933650;29;20760;-70
2022/03/29 13:18:31;;;;;;;19.20;15.35;;;23.80;43.50;;;;;;4926610;29;20194;-69
2022/03/29 13:21:17;;;;;;;24.00;16.40;;;23.60;43.30;;;;;;4925940;29;20541;-70
2022/03/29 13:23:44;;;;;;;22.30;15.07;;;23.30;43.90;;;;;;4925714;29;20214;-70
2022/03/29 13:26:15;;;;;;;21.98;15.57;;;23.10;44.20;;;;;;4933240;29;20198;-69
2022/03/29 13:28:42;;;;;;;21.70;15.25;;;22.60;44.10;;;;;;4935308;29;20190;-70
2022/03/29 13:31:10;;;;;;;22.85;14.65;;;22.20;44.40;;;;;;4930756;29;20179;-71
2022/03/29 13:33:36;;;;;;;24.17;14.50;;;22.20;45.10;;;;;;4924748;29;20597;-70
2022/03/29 13:36:11;;;;;;;22.90;14.35;;;22.30;44.80;;;;;;4936432;29;20202;-70
2022/03/29 13:38:38;;;;;;;26.65;13.73;;;22.40;45.00;;;;;;4936076;29;20851;-70
2022/03/29 13:41:05;;;;;;;23.70;13.57;;;22.60;43.30;;;;;;4931306;29;20186;-70
2022/03/29 13:43:33;;;;;;;23.48;14.30;;;22.80;44.00;;;;;;4915916;29;20269;-69
2022/03/29 13:45:59;;;;;;;20.90;13.85;;;22.80;44.80;;;;;;4916514;29;20700;-70
2022/03/29 13:48:26;;;;;;;24.02;14.10;;;22.90;45.20;;;;;;4917633;29;20222;-69
2022/03/29 13:50:52;;;;;;;23.92;16.73;;;23.10;43.50;;;;;;4920173;29;20186;-67
2022/03/29 13:53:20;;;;;;;26.08;14.40;;;23.00;44.40;;;;;;4936475;29;20190;-68
2022/03/29 13:55:47;;;;;;;25.58;14.38;;;23.10;43.80;;;;;;4936300;29;20689;-64
2022/03/29 13:58:13;;;;;;;21.17;14.73;;;22.90;44.50;;;;;;4935747;29;20182;-66
2022/03/29 14:00:40;;;;;;;21.75;15.40;;;22.90;44.80;;;;;;4934620;29;20229;-66
2022/03/29 14:03:09;;;;;;;22.15;14.35;;;22.70;44.30;;;;;;4917319;29;20198;-66
2022/03/29 14:05:39;;;;;;;27.02;14.13;;;23.10;44.00;;;;;;4916752;29;20206;-66
2022/03/29 14:08:06;;;;;;;20.55;13.20;;;23.20;44.40;;;;;;4916877;29;20670;-66
2022/03/29 14:10:33;;;;;;;21.25;13.55;;;23.00;44.10;;;;;;4917248;29;20179;-67
2022/03/29 14:13:00;;;;;;;28.98;15.13;;;23.60;43.50;;;;;;4931942;29;20182;-67
2022/03/29 14:15:26;;;;;;;24.48;14.55;;;23.90;43.50;;;;;;4935871;29;20179;-67
2022/03/29 14:17:55;;;;;;;27.27;15.48;;;24.00;41.50;;;;;;4934424;29;20185;-71
2022/03/29 14:20:22;;;;;;;24.52;15.10;;;23.90;42.50;;;;;;4929701;29;20676;-71
2022/03/29 14:22:48;;;;;;;28.30;13.98;;;24.10;41.80;;;;;;4928533;29;20269;-72
2022/03/29 14:25:16;;;;;;;23.75;12.55;;;24.50;42.10;;;;;;4930569;29;20226;-71
2022/03/29 14:27:42;;;;;;;26.10;14.07;;;24.40;40.80;;;;;;4916375;29;20352;-71
2022/03/29 14:30:10;;;;;;;21.90;13.02;;;23.90;41.50;;;;;;4922841;29;20272;-70
2022/03/29 14:32:36;;;;;;;23.05;13.15;;;23.70;42.00;;;;;;4933682;29;20210;-71
2022/03/29 14:35:06;;;;;;;35.72;13.57;;;23.40;41.70;;;;;;4915252;29;20183;-71
2022/03/29 14:37:37;;;;;;;26.25;12.10;;;23.40;42.80;;;;;;4915108;29;20210;-71
2022/03/29 14:40:08;;;;;;;21.77;12.55;;;23.70;40.90;;;;;;4921342;29;20190;-70
2022/03/29 14:42:38;;;;;;;20.08;12.38;;;23.70;40.90;;;;;;4935236;29;20702;-70
2022/03/29 14:45:06;;;;;;;24.60;14.13;;;23.10;43.10;;;;;;4923329;29;20767;-71
2022/03/29 14:47:36;;;;;;;26.02;14.30;;;22.90;43.40;;;;;;4914786;29;20549;-71
2022/03/29 14:50:04;;;;;;;35.50;17.27;;;22.70;43.20;;;;;;4915796;29;20646;-71
2022/03/29 14:52:31;;;;;;;25.52;14.00;;;22.50;44.10;;;;;;4929407;29;20214;-71
2022/03/29 14:54:57;;;;;;;31.50;13.60;;;22.60;43.80;;;;;;4924835;29;20183;-70
2022/03/29 14:57:23;;;;;;;26.45;13.35;;;22.40;43.70;;;;;;4914870;29;20621;-70
2022/03/29 14:59:49;;;;;;;32.35;12.95;;;22.10;43.70;;;;;;4915210;29;20186;-70
2022/03/29 15:02:17;;;;;;;29.45;14.07;;;21.90;44.40;;;;;;4916435;29;20183;-71
2022/03/29 15:04:43;;;;;;;28.88;12.90;;;21.70;44.90;;;;;;4923010;29;20210;-71
2022/03/29 15:07:09;;;;;;;29.00;13.80;;;21.40;45.10;;;;;;4934575;29;20261;-71
2022/03/29 15:09:37;;;;;;;26.25;14.40;;;21.30;44.40;;;;;;4935136;29;20249;-71
2022/03/29 15:12:03;;;;;;;24.25;12.27;;;21.20;45.00;;;;;;4935023;29;20182;-71
2022/03/29 15:14:29;;;;;;;22.60;12.50;;;20.90;44.70;;;;;;4930340;29;20194;-70
2022/03/29 15:16:55;;;;;;;28.60;14.55;;;20.70;45.40;;;;;;4941254;23;20252;-74
2022/03/29 15:19:21;;;;;;;26.65;10.55;;;20.40;43.30;;;;;;4934892;29;20185;-73
2022/03/29 15:21:46;;;;;;;30.40;13.63;;;20.20;42.00;;;;;;4934954;29;20230;-73
2022/03/29 15:24:13;;;;;;;25.77;11.68;;;20.20;42.50;;;;;;4934882;29;20682;-73
2022/03/29 15:26:39;;;;;;;21.65;12.77;;;20.20;43.10;;;;;;4947207;29;20221;-73
2022/03/29 15:29:04;;;;;;;22.92;11.88;;;20.30;43.50;;;;;;4951050;29;20631;-72
2022/03/29 15:31:30;;;;;;;23.35;11.30;;;20.30;45.00;;;;;;4933920;29;20552;-72
2022/03/29 15:33:56;;;;;;;24.35;12.80;;;20.20;45.60;;;;;;4935369;29;20174;-74
2022/03/29 15:36:21;;;;;;;25.55;12.82;;;20.00;45.50;;;;;;4915861;29;20284;-72
2022/03/29 15:38:47;;;;;;;20.10;13.43;;;20.00;46.20;;;;;;4915269;29;20285;-74
2022/03/29 15:41:13;;;;;;;22.77;13.10;;;19.90;45.70;;;;;;4915790;29;20238;-72
2022/03/29 15:43:42;;;;;;;37.70;14.95;;;19.70;46.00;;;;;;4915544;29;20637;-72
2022/03/29 15:46:07;;;;;;;27.75;18.48;;;19.60;47.60;;;;;;4932703;29;20233;-72
2022/03/29 15:48:33;;;;;;;37.28;21.10;;;19.60;48.80;;;;;;4934157;29;20206;-72
2022/03/29 15:51:01;;;;;;;28.90;23.13;;;19.50;49.40;;;;;;4934518;29;20265;-72